sensor_id;sensor_type;location;lat;lon;timestamp;P1;durP1;ratioP1;P2;durP2;ratioP2
25567;SDS011;13455;51.480;7.594;2023-04-24T00:01:41;1.95;;;0.80;;
25567;SDS011;13455;51.480;7.594;2023-04-24T00:04:07;1.20;;;0.70;;
25567;SDS011;13455;51.480;7.594;2023-04-24T00:06:35;1.88;;;0.70;;
25567;SDS011;13455;51.480;7.594;2023-04-24T00:09:07;2.28;;;0.50;;
25567;SDS011;13455;51.480;7.594;2023-04-24T00:11:35;0.83;;;0.40;;
25567;SDS011;13455;51.480;7.594;2023-04-24T00:14:01;1.00;;;0.50;;
25567;SDS011;13455;51.480;7.594;2023-04-24T00:16:27;1.53;;;0.60;;
25567;SDS011;13455;51.480;7.594;2023-04-24T00:18:53;1.53;;;0.50;;
25567;SDS011;13455;51.480;7.594;2023-04-24T00:21:19;1.05;;;0.50;;
25567;SDS011;13455;51.480;7.594;2023-04-24T00:23:45;1.87;;;0.60;;
25567;SDS011;13455;51.480;7.594;2023-04-24T00:26:11;2.20;;;0.60;;
25567;SDS011;13455;51.480;7.594;2023-04-24T00:28:37;2.10;;;0.50;;
25567;SDS011;13455;51.480;7.594;2023-04-24T00:31:03;2.45;;;0.70;;
25567;SDS011;13455;51.480;7.594;2023-04-24T00:33:28;2.17;;;0.80;;
25567;SDS011;13455;51.480;7.594;2023-04-24T00:35:54;1.30;;;0.90;;
25567;SDS011;13455;51.480;7.594;2023-04-24T00:38:20;1.30;;;0.82;;
25567;SDS011;13455;51.480;7.594;2023-04-24T00:40:47;3.22;;;1.10;;
25567;SDS011;13455;51.480;7.594;2023-04-24T00:43:13;1.77;;;1.17;;
25567;SDS011;13455;51.480;7.594;2023-04-24T00:45:38;2.23;;;1.27;;
25567;SDS011;13455;51.480;7.594;2023-04-24T00:48:04;2.30;;;1.50;;
25567;SDS011;13455;51.480;7.594;2023-04-24T00:50:31;2.83;;;1.63;;
25567;SDS011;13455;51.480;7.594;2023-04-24T00:52:57;4.28;;;2.03;;
25567;SDS011;13455;51.480;7.594;2023-04-24T00:55:23;3.70;;;2.35;;
25567;SDS011;13455;51.480;7.594;2023-04-24T00:57:50;4.00;;;2.50;;
25567;SDS011;13455;51.480;7.594;2023-04-24T01:00:16;3.80;;;2.40;;
25567;SDS011;13455;51.480;7.594;2023-04-24T01:02:43;3.90;;;2.70;;
25567;SDS011;13455;51.480;7.594;2023-04-24T01:05:10;4.40;;;3.20;;
25567;SDS011;13455;51.480;7.594;2023-04-24T01:07:37;4.83;;;3.30;;
25567;SDS011;13455;51.480;7.594;2023-04-24T01:10:03;4.22;;;3.10;;
25567;SDS011;13455;51.480;7.594;2023-04-24T01:12:29;4.65;;;3.00;;
25567;SDS011;13455;51.480;7.594;2023-04-24T01:14:55;4.80;;;3.00;;
25567;SDS011;13455;51.480;7.594;2023-04-24T01:17:21;3.38;;;2.08;;
25567;SDS011;13455;51.480;7.594;2023-04-24T01:19:47;2.70;;;1.63;;
25567;SDS011;13455;51.480;7.594;2023-04-24T01:22:13;2.67;;;1.67;;
25567;SDS011;13455;51.480;7.594;2023-04-24T01:24:40;2.97;;;1.80;;
25567;SDS011;13455;51.480;7.594;2023-04-24T01:27:07;3.27;;;1.67;;
25567;SDS011;13455;51.480;7.594;2023-04-24T01:29:33;3.72;;;1.70;;
25567;SDS011;13455;51.480;7.594;2023-04-24T01:32:00;3.00;;;1.90;;
25567;SDS011;13455;51.480;7.594;2023-04-24T01:34:26;3.78;;;2.80;;
25567;SDS011;13455;51.480;7.594;2023-04-24T01:36:51;4.07;;;3.20;;
25567;SDS011;13455;51.480;7.594;2023-04-24T01:39:17;5.35;;;3.72;;
25567;SDS011;13455;51.480;7.594;2023-04-24T01:41:45;4.53;;;3.80;;
25567;SDS011;13455;51.480;7.594;2023-04-24T01:44:11;6.45;;;4.00;;
25567;SDS011;13455;51.480;7.594;2023-04-24T01:46:37;4.78;;;3.80;;
25567;SDS011;13455;51.480;7.594;2023-04-24T01:49:03;6.68;;;4.00;;
25567;SDS011;13455;51.480;7.594;2023-04-24T01:51:29;4.07;;;3.35;;
25567;SDS011;13455;51.480;7.594;2023-04-24T01:53:55;3.63;;;2.60;;
25567;SDS011;13455;51.480;7.594;2023-04-24T01:56:21;3.25;;;2.08;;
25567;SDS011;13455;51.480;7.594;2023-04-24T01:58:48;4.47;;;2.00;;
25567;SDS011;13455;51.480;7.594;2023-04-24T02:01:19;3.55;;;2.15;;
25567;SDS011;13455;51.480;7.594;2023-04-24T02:03:45;2.55;;;1.67;;
25567;SDS011;13455;51.480;7.594;2023-04-24T02:06:11;3.10;;;1.75;;
25567;SDS011;13455;51.480;7.594;2023-04-24T02:08:37;3.90;;;2.00;;
25567;SDS011;13455;51.480;7.594;2023-04-24T02:11:02;2.40;;;1.50;;
25567;SDS011;13455;51.480;7.594;2023-04-24T02:13:28;2.90;;;1.80;;
25567;SDS011;13455;51.480;7.594;2023-04-24T02:15:54;2.80;;;1.80;;
25567;SDS011;13455;51.480;7.594;2023-04-24T02:18:19;2.55;;;1.75;;
25567;SDS011;13455;51.480;7.594;2023-04-24T02:20:45;3.78;;;2.10;;
25567;SDS011;13455;51.480;7.594;2023-04-24T02:23:11;3.90;;;2.25;;
25567;SDS011;13455;51.480;7.594;2023-04-24T02:25:38;3.72;;;2.30;;
25567;SDS011;13455;51.480;7.594;2023-04-24T02:28:03;6.05;;;2.10;;
25567;SDS011;13455;51.480;7.594;2023-04-24T02:30:29;3.70;;;2.40;;
25567;SDS011;13455;51.480;7.594;2023-04-24T02:32:55;3.42;;;2.13;;
25567;SDS011;13455;51.480;7.594;2023-04-24T02:35:21;4.22;;;2.20;;
25567;SDS011;13455;51.480;7.594;2023-04-24T02:37:46;4.88;;;2.50;;
25567;SDS011;13455;51.480;7.594;2023-04-24T02:40:12;4.03;;;2.42;;
25567;SDS011;13455;51.480;7.594;2023-04-24T02:42:38;4.82;;;2.72;;
25567;SDS011;13455;51.480;7.594;2023-04-24T02:45:03;3.20;;;2.40;;
25567;SDS011;13455;51.480;7.594;2023-04-24T02:47:30;4.28;;;2.60;;
25567;SDS011;13455;51.480;7.594;2023-04-24T02:49:55;3.80;;;2.70;;
25567;SDS011;13455;51.480;7.594;2023-04-24T02:52:21;4.30;;;2.60;;
25567;SDS011;13455;51.480;7.594;2023-04-24T02:54:46;4.18;;;2.58;;
25567;SDS011;13455;51.480;7.594;2023-04-24T02:57:12;4.63;;;2.80;;
25567;SDS011;13455;51.480;7.594;2023-04-24T02:59:37;4.22;;;2.85;;
25567;SDS011;13455;51.480;7.594;2023-04-24T03:02:03;4.57;;;3.00;;
25567;SDS011;13455;51.480;7.594;2023-04-24T03:04:29;4.90;;;3.03;;
25567;SDS011;13455;51.480;7.594;2023-04-24T03:06:54;5.67;;;3.00;;
25567;SDS011;13455;51.480;7.594;2023-04-24T03:09:20;4.13;;;3.00;;
25567;SDS011;13455;51.480;7.594;2023-04-24T03:11:46;4.43;;;3.00;;
25567;SDS011;13455;51.480;7.594;2023-04-24T03:14:13;5.07;;;3.50;;
25567;SDS011;13455;51.480;7.594;2023-04-24T03:16:39;6.10;;;4.13;;
25567;SDS011;13455;51.480;7.594;2023-04-24T03:19:04;8.50;;;4.90;;
25567;SDS011;13455;51.480;7.594;2023-04-24T03:21:30;7.55;;;5.07;;
25567;SDS011;13455;51.480;7.594;2023-04-24T03:23:56;7.28;;;5.63;;
25567;SDS011;13455;51.480;7.594;2023-04-24T03:26:21;9.20;;;6.70;;
25567;SDS011;13455;51.480;7.594;2023-04-24T03:28:47;11.35;;;7.30;;
25567;SDS011;13455;51.480;7.594;2023-04-24T03:31:13;12.32;;;8.00;;
25567;SDS011;13455;51.480;7.594;2023-04-24T03:33:40;11.80;;;7.70;;
25567;SDS011;13455;51.480;7.594;2023-04-24T03:36:06;11.23;;;7.70;;
25567;SDS011;13455;51.480;7.594;2023-04-24T03:38:31;11.05;;;8.52;;
25567;SDS011;13455;51.480;7.594;2023-04-24T03:40:57;12.90;;;8.80;;
25567;SDS011;13455;51.480;7.594;2023-04-24T03:43:23;13.13;;;8.87;;
25567;SDS011;13455;51.480;7.594;2023-04-24T03:45:48;13.40;;;8.90;;
25567;SDS011;13455;51.480;7.594;2023-04-24T03:48:14;14.50;;;10.03;;
25567;SDS011;13455;51.480;7.594;2023-04-24T03:50:40;14.63;;;10.80;;
25567;SDS011;13455;51.480;7.594;2023-04-24T03:53:05;17.20;;;12.33;;
25567;SDS011;13455;51.480;7.594;2023-04-24T03:55:31;19.53;;;13.87;;
25567;SDS011;13455;51.480;7.594;2023-04-24T03:57:56;21.30;;;13.80;;
25567;SDS011;13455;51.480;7.594;2023-04-24T04:00:22;23.63;;;15.90;;
25567;SDS011;13455;51.480;7.594;2023-04-24T04:02:47;29.30;;;18.25;;
25567;SDS011;13455;51.480;7.594;2023-04-24T04:05:13;28.95;;;18.65;;
25567;SDS011;13455;51.480;7.594;2023-04-24T04:07:39;28.23;;;19.42;;
25567;SDS011;13455;51.480;7.594;2023-04-24T04:10:05;25.42;;;17.77;;
25567;SDS011;13455;51.480;7.594;2023-04-24T04:12:32;21.38;;;14.50;;
25567;SDS011;13455;51.480;7.594;2023-04-24T04:14:57;18.83;;;12.37;;
25567;SDS011;13455;51.480;7.594;2023-04-24T04:17:24;17.48;;;11.50;;
25567;SDS011;13455;51.480;7.594;2023-04-24T04:19:49;15.80;;;11.10;;
25567;SDS011;13455;51.480;7.594;2023-04-24T04:22:15;17.17;;;11.48;;
25567;SDS011;13455;51.480;7.594;2023-04-24T04:24:41;15.70;;;11.20;;
25567;SDS011;13455;51.480;7.594;2023-04-24T04:27:07;15.97;;;11.60;;
25567;SDS011;13455;51.480;7.594;2023-04-24T04:29:33;15.52;;;11.00;;
25567;SDS011;13455;51.480;7.594;2023-04-24T04:32:00;13.60;;;10.10;;
25567;SDS011;13455;51.480;7.594;2023-04-24T04:34:26;14.37;;;10.30;;
25567;SDS011;13455;51.480;7.594;2023-04-24T04:36:52;15.43;;;10.27;;
25567;SDS011;13455;51.480;7.594;2023-04-24T04:39:17;16.20;;;10.30;;
25567;SDS011;13455;51.480;7.594;2023-04-24T04:41:43;16.37;;;10.10;;
25567;SDS011;13455;51.480;7.594;2023-04-24T04:44:11;14.18;;;10.13;;
25567;SDS011;13455;51.480;7.594;2023-04-24T04:46:37;14.82;;;10.38;;
25567;SDS011;13455;51.480;7.594;2023-04-24T04:49:03;14.77;;;10.60;;
25567;SDS011;13455;51.480;7.594;2023-04-24T04:51:29;14.13;;;10.55;;
25567;SDS011;13455;51.480;7.594;2023-04-24T04:53:56;16.27;;;10.53;;
25567;SDS011;13455;51.480;7.594;2023-04-24T04:56:21;14.80;;;10.40;;
25567;SDS011;13455;51.480;7.594;2023-04-24T04:58:47;14.33;;;10.17;;
25567;SDS011;13455;51.480;7.594;2023-04-24T05:01:13;13.67;;;10.90;;
25567;SDS011;13455;51.480;7.594;2023-04-24T05:03:38;14.47;;;10.90;;
25567;SDS011;13455;51.480;7.594;2023-04-24T05:06:04;12.57;;;10.30;;
25567;SDS011;13455;51.480;7.594;2023-04-24T05:08:30;14.95;;;10.93;;
25567;SDS011;13455;51.480;7.594;2023-04-24T05:10:56;18.48;;;11.73;;
25567;SDS011;13455;51.480;7.594;2023-04-24T05:13:22;17.08;;;12.45;;
25567;SDS011;13455;51.480;7.594;2023-04-24T05:15:47;16.85;;;12.98;;
25567;SDS011;13455;51.480;7.594;2023-04-24T05:18:13;19.67;;;13.53;;
25567;SDS011;13455;51.480;7.594;2023-04-24T05:20:38;17.33;;;12.67;;
25567;SDS011;13455;51.480;7.594;2023-04-24T05:23:04;16.83;;;12.20;;
25567;SDS011;13455;51.480;7.594;2023-04-24T05:25:30;18.60;;;12.47;;
25567;SDS011;13455;51.480;7.594;2023-04-24T05:28:00;16.15;;;11.52;;
25567;SDS011;13455;51.480;7.594;2023-04-24T05:30:26;16.77;;;11.70;;
25567;SDS011;13455;51.480;7.594;2023-04-24T05:32:51;16.33;;;10.80;;
25567;SDS011;13455;51.480;7.594;2023-04-24T05:35:17;14.18;;;9.82;;
25567;SDS011;13455;51.480;7.594;2023-04-24T05:37:43;13.73;;;9.23;;
25567;SDS011;13455;51.480;7.594;2023-04-24T05:40:09;13.70;;;9.27;;
25567;SDS011;13455;51.480;7.594;2023-04-24T05:42:36;12.63;;;9.90;;
25567;SDS011;13455;51.480;7.594;2023-04-24T05:45:01;13.07;;;9.97;;
25567;SDS011;13455;51.480;7.594;2023-04-24T05:47:27;13.10;;;9.10;;
25567;SDS011;13455;51.480;7.594;2023-04-24T05:49:53;14.43;;;9.23;;
25567;SDS011;13455;51.480;7.594;2023-04-24T05:52:19;12.48;;;9.30;;
25567;SDS011;13455;51.480;7.594;2023-04-24T05:54:44;11.73;;;8.43;;
25567;SDS011;13455;51.480;7.594;2023-04-24T05:57:10;12.05;;;8.85;;
25567;SDS011;13455;51.480;7.594;2023-04-24T05:59:36;11.33;;;8.70;;
25567;SDS011;13455;51.480;7.594;2023-04-24T06:02:06;10.60;;;7.10;;
25567;SDS011;13455;51.480;7.594;2023-04-24T06:04:32;10.02;;;7.95;;
25567;SDS011;13455;51.480;7.594;2023-04-24T06:06:58;9.25;;;6.90;;
25567;SDS011;13455;51.480;7.594;2023-04-24T06:09:24;9.18;;;7.00;;
25567;SDS011;13455;51.480;7.594;2023-04-24T06:11:50;11.65;;;7.68;;
25567;SDS011;13455;51.480;7.594;2023-04-24T06:14:18;10.60;;;7.93;;
25567;SDS011;13455;51.480;7.594;2023-04-24T06:16:44;11.20;;;8.53;;
25567;SDS011;13455;51.480;7.594;2023-04-24T06:19:10;14.10;;;8.97;;
25567;SDS011;13455;51.480;7.594;2023-04-24T06:21:35;13.30;;;8.77;;
25567;SDS011;13455;51.480;7.594;2023-04-24T06:24:01;10.97;;;8.13;;
25567;SDS011;13455;51.480;7.594;2023-04-24T06:26:29;10.15;;;8.18;;
25567;SDS011;13455;51.480;7.594;2023-04-24T06:28:55;9.57;;;7.53;;
25567;SDS011;13455;51.480;7.594;2023-04-24T06:31:20;10.17;;;7.50;;
25567;SDS011;13455;51.480;7.594;2023-04-24T06:33:47;9.32;;;7.22;;
25567;SDS011;13455;51.480;7.594;2023-04-24T06:36:13;9.95;;;7.30;;
25567;SDS011;13455;51.480;7.594;2023-04-24T06:38:39;11.63;;;8.07;;
25567;SDS011;13455;51.480;7.594;2023-04-24T06:41:05;10.38;;;7.45;;
25567;SDS011;13455;51.480;7.594;2023-04-24T06:43:31;10.00;;;7.43;;
25567;SDS011;13455;51.480;7.594;2023-04-24T06:45:57;8.90;;;6.30;;
25567;SDS011;13455;51.480;7.594;2023-04-24T06:48:23;8.73;;;5.95;;
25567;SDS011;13455;51.480;7.594;2023-04-24T06:50:50;6.63;;;5.07;;
25567;SDS011;13455;51.480;7.594;2023-04-24T06:53:16;8.43;;;5.20;;
25567;SDS011;13455;51.480;7.594;2023-04-24T06:55:41;6.60;;;5.03;;
25567;SDS011;13455;51.480;7.594;2023-04-24T06:58:08;6.07;;;4.30;;
25567;SDS011;13455;51.480;7.594;2023-04-24T07:00:34;5.57;;;4.30;;
25567;SDS011;13455;51.480;7.594;2023-04-24T07:03:00;5.63;;;3.70;;
25567;SDS011;13455;51.480;7.594;2023-04-24T07:05:25;6.60;;;4.00;;
25567;SDS011;13455;51.480;7.594;2023-04-24T07:07:51;5.20;;;3.70;;
25567;SDS011;13455;51.480;7.594;2023-04-24T07:10:17;5.35;;;4.05;;
25567;SDS011;13455;51.480;7.594;2023-04-24T07:12:43;5.68;;;4.07;;
25567;SDS011;13455;51.480;7.594;2023-04-24T07:15:08;6.45;;;4.40;;
25567;SDS011;13455;51.480;7.594;2023-04-24T07:17:35;6.55;;;4.70;;
25567;SDS011;13455;51.480;7.594;2023-04-24T07:20:03;7.45;;;4.45;;
25567;SDS011;13455;51.480;7.594;2023-04-24T07:22:29;6.87;;;4.50;;
25567;SDS011;13455;51.480;7.594;2023-04-24T07:24:55;7.65;;;4.90;;
25567;SDS011;13455;51.480;7.594;2023-04-24T07:27:21;7.00;;;4.60;;
25567;SDS011;13455;51.480;7.594;2023-04-24T07:29:46;6.20;;;4.60;;
25567;SDS011;13455;51.480;7.594;2023-04-24T07:32:12;5.50;;;4.33;;
25567;SDS011;13455;51.480;7.594;2023-04-24T07:34:38;6.13;;;4.30;;
25567;SDS011;13455;51.480;7.594;2023-04-24T07:37:04;6.13;;;4.70;;
25567;SDS011;13455;51.480;7.594;2023-04-24T07:39:30;5.55;;;4.22;;
25567;SDS011;13455;51.480;7.594;2023-04-24T07:41:56;6.28;;;4.13;;
25567;SDS011;13455;51.480;7.594;2023-04-24T07:44:24;5.88;;;4.18;;
25567;SDS011;13455;51.480;7.594;2023-04-24T07:46:49;5.47;;;4.00;;
25567;SDS011;13455;51.480;7.594;2023-04-24T07:49:15;5.27;;;4.23;;
25567;SDS011;13455;51.480;7.594;2023-04-24T07:51:41;6.67;;;4.30;;
25567;SDS011;13455;51.480;7.594;2023-04-24T07:54:06;5.83;;;3.90;;
25567;SDS011;13455;51.480;7.594;2023-04-24T07:56:32;5.73;;;3.87;;
25567;SDS011;13455;51.480;7.594;2023-04-24T07:58:58;4.93;;;3.57;;
25567;SDS011;13455;51.480;7.594;2023-04-24T08:01:24;4.82;;;3.50;;
25567;SDS011;13455;51.480;7.594;2023-04-24T08:03:50;5.47;;;3.50;;
25567;SDS011;13455;51.480;7.594;2023-04-24T08:06:16;4.50;;;3.28;;
25567;SDS011;13455;51.480;7.594;2023-04-24T08:08:42;4.63;;;3.10;;
25567;SDS011;13455;51.480;7.594;2023-04-24T08:11:07;5.50;;;3.10;;
25567;SDS011;13455;51.480;7.594;2023-04-24T08:13:33;4.78;;;2.80;;
25567;SDS011;13455;51.480;7.594;2023-04-24T08:15:58;4.40;;;2.80;;
25567;SDS011;13455;51.480;7.594;2023-04-24T08:18:24;4.30;;;2.80;;
25567;SDS011;13455;51.480;7.594;2023-04-24T08:20:50;4.53;;;2.60;;
25567;SDS011;13455;51.480;7.594;2023-04-24T08:23:15;3.55;;;2.50;;
25567;SDS011;13455;51.480;7.594;2023-04-24T08:25:41;4.30;;;2.95;;
25567;SDS011;13455;51.480;7.594;2023-04-24T08:28:08;4.80;;;3.40;;
25567;SDS011;13455;51.480;7.594;2023-04-24T08:30:34;4.43;;;3.30;;
25567;SDS011;13455;51.480;7.594;2023-04-24T08:33:00;3.25;;;2.60;;
25567;SDS011;13455;51.480;7.594;2023-04-24T08:35:25;5.40;;;3.17;;
25567;SDS011;13455;51.480;7.594;2023-04-24T08:37:52;4.63;;;3.10;;
25567;SDS011;13455;51.480;7.594;2023-04-24T08:40:18;3.70;;;2.53;;
25567;SDS011;13455;51.480;7.594;2023-04-24T08:42:51;3.45;;;1.85;;
25567;SDS011;13455;51.480;7.594;2023-04-24T08:45:21;2.10;;;1.30;;
25567;SDS011;13455;51.480;7.594;2023-04-24T08:47:47;1.75;;;1.10;;
25567;SDS011;13455;51.480;7.594;2023-04-24T08:50:14;1.45;;;0.90;;
25567;SDS011;13455;51.480;7.594;2023-04-24T08:52:40;1.38;;;0.70;;
25567;SDS011;13455;51.480;7.594;2023-04-24T08:55:07;1.30;;;0.70;;
25567;SDS011;13455;51.480;7.594;2023-04-24T08:57:33;1.70;;;0.70;;
25567;SDS011;13455;51.480;7.594;2023-04-24T09:00:00;1.30;;;0.60;;
25567;SDS011;13455;51.480;7.594;2023-04-24T09:02:26;0.88;;;0.50;;
25567;SDS011;13455;51.480;7.594;2023-04-24T09:04:53;1.00;;;0.50;;
25567;SDS011;13455;51.480;7.594;2023-04-24T09:07:22;2.10;;;0.80;;
25567;SDS011;13455;51.480;7.594;2023-04-24T09:09:50;3.00;;;1.85;;
25567;SDS011;13455;51.480;7.594;2023-04-24T09:12:17;2.28;;;1.40;;
25567;SDS011;13455;51.480;7.594;2023-04-24T09:14:44;2.17;;;1.00;;
25567;SDS011;13455;51.480;7.594;2023-04-24T09:17:10;1.90;;;1.00;;
25567;SDS011;13455;51.480;7.594;2023-04-24T09:19:36;3.90;;;1.00;;
25567;SDS011;13455;51.480;7.594;2023-04-24T09:22:04;1.83;;;0.70;;
25567;SDS011;13455;51.480;7.594;2023-04-24T09:24:31;2.10;;;1.30;;
25567;SDS011;13455;51.480;7.594;2023-04-24T09:26:57;2.08;;;1.20;;
25567;SDS011;13455;51.480;7.594;2023-04-24T09:29:24;1.70;;;0.80;;
25567;SDS011;13455;51.480;7.594;2023-04-24T09:31:50;2.50;;;1.00;;
25567;SDS011;13455;51.480;7.594;2023-04-24T09:34:20;1.88;;;1.00;;
25567;SDS011;13455;51.480;7.594;2023-04-24T09:36:53;1.85;;;1.00;;
25567;SDS011;13455;51.480;7.594;2023-04-24T09:39:19;3.13;;;0.60;;
25567;SDS011;13455;51.480;7.594;2023-04-24T09:44:15;1.92;;;0.75;;
25567;SDS011;13455;51.480;7.594;2023-04-24T09:46:41;0.90;;;0.63;;
25567;SDS011;13455;51.480;7.594;2023-04-24T09:49:08;1.80;;;1.00;;
25567;SDS011;13455;51.480;7.594;2023-04-24T09:51:39;2.97;;;1.05;;
25567;SDS011;13455;51.480;7.594;2023-04-24T09:54:15;2.03;;;1.00;;
25567;SDS011;13455;51.480;7.594;2023-04-24T09:56:42;3.03;;;0.90;;
25567;SDS011;13455;51.480;7.594;2023-04-24T09:59:10;1.95;;;1.00;;
25567;SDS011;13455;51.480;7.594;2023-04-24T10:01:36;2.10;;;0.90;;
25567;SDS011;13455;51.480;7.594;2023-04-24T10:04:03;2.88;;;1.08;;
25567;SDS011;13455;51.480;7.594;2023-04-24T10:06:35;2.40;;;0.90;;
25567;SDS011;13455;51.480;7.594;2023-04-24T10:09:01;2.47;;;0.93;;
25567;SDS011;13455;51.480;7.594;2023-04-24T10:11:28;2.78;;;1.20;;
25567;SDS011;13455;51.480;7.594;2023-04-24T10:13:55;2.45;;;1.00;;
25567;SDS011;13455;51.480;7.594;2023-04-24T10:16:22;1.75;;;1.00;;
25567;SDS011;13455;51.480;7.594;2023-04-24T10:18:48;2.80;;;1.02;;
25567;SDS011;13455;51.480;7.594;2023-04-24T10:21:15;2.20;;;1.00;;
25567;SDS011;13455;51.480;7.594;2023-04-24T10:23:42;2.10;;;1.00;;
25567;SDS011;13455;51.480;7.594;2023-04-24T10:26:10;2.30;;;1.23;;
25567;SDS011;13455;51.480;7.594;2023-04-24T10:28:42;2.85;;;1.33;;
25567;SDS011;13455;51.480;7.594;2023-04-24T10:31:09;3.90;;;1.55;;
25567;SDS011;13455;51.480;7.594;2023-04-24T10:33:36;3.42;;;1.80;;
25567;SDS011;13455;51.480;7.594;2023-04-24T10:36:02;4.78;;;1.75;;
25567;SDS011;13455;51.480;7.594;2023-04-24T10:38:28;4.22;;;2.05;;
25567;SDS011;13455;51.480;7.594;2023-04-24T10:41:06;4.50;;;2.13;;
25567;SDS011;13455;51.480;7.594;2023-04-24T10:43:33;4.80;;;2.00;;
25567;SDS011;13455;51.480;7.594;2023-04-24T10:46:00;3.85;;;2.10;;
25567;SDS011;13455;51.480;7.594;2023-04-24T10:48:27;3.30;;;2.13;;
25567;SDS011;13455;51.480;7.594;2023-04-24T10:50:53;5.72;;;2.17;;
25567;SDS011;13455;51.480;7.594;2023-04-24T10:55:46;3.90;;;2.20;;
25567;SDS011;13455;51.480;7.594;2023-04-24T10:58:13;3.75;;;2.40;;
25567;SDS011;13455;51.480;7.594;2023-04-24T11:00:41;5.82;;;2.72;;
25567;SDS011;13455;51.480;7.594;2023-04-24T11:08:44;3.90;;;2.50;;
25567;SDS011;13455;51.480;7.594;2023-04-24T11:11:11;4.72;;;2.55;;
25567;SDS011;13455;51.480;7.594;2023-04-24T11:18:52;5.30;;;3.13;;
25567;SDS011;13455;51.480;7.594;2023-04-24T11:21:25;5.40;;;3.27;;
25567;SDS011;13455;51.480;7.594;2023-04-24T11:23:56;6.50;;;3.33;;
25567;SDS011;13455;51.480;7.594;2023-04-24T11:26:22;7.83;;;3.40;;
25567;SDS011;13455;51.480;7.594;2023-04-24T11:29:05;6.57;;;3.63;;
25567;SDS011;13455;51.480;7.594;2023-04-24T11:31:39;9.07;;;4.30;;
25567;SDS011;13455;51.480;7.594;2023-04-24T11:34:10;10.30;;;4.28;;
25567;SDS011;13455;51.480;7.594;2023-04-24T11:36:39;8.55;;;4.47;;
25567;SDS011;13455;51.480;7.594;2023-04-24T11:39:07;10.23;;;4.75;;
25567;SDS011;13455;51.480;7.594;2023-04-24T11:41:33;12.32;;;5.35;;
25567;SDS011;13455;51.480;7.594;2023-04-24T11:44:00;12.30;;;5.75;;
25567;SDS011;13455;51.480;7.594;2023-04-24T11:46:27;11.55;;;5.40;;
25567;SDS011;13455;51.480;7.594;2023-04-24T11:48:54;11.95;;;5.70;;
25567;SDS011;13455;51.480;7.594;2023-04-24T11:51:21;13.18;;;5.82;;
25567;SDS011;13455;51.480;7.594;2023-04-24T11:53:48;12.48;;;5.30;;
25567;SDS011;13455;51.480;7.594;2023-04-24T11:56:17;11.75;;;5.80;;
25567;SDS011;13455;51.480;7.594;2023-04-24T11:58:46;12.20;;;5.55;;
25567;SDS011;13455;51.480;7.594;2023-04-24T12:01:12;13.68;;;6.35;;
25567;SDS011;13455;51.480;7.594;2023-04-24T12:03:38;15.15;;;6.10;;
25567;SDS011;13455;51.480;7.594;2023-04-24T12:08:34;12.80;;;6.22;;
25567;SDS011;13455;51.480;7.594;2023-04-24T12:11:01;13.13;;;7.00;;
25567;SDS011;13455;51.480;7.594;2023-04-24T12:13:27;14.57;;;7.32;;
25567;SDS011;13455;51.480;7.594;2023-04-24T12:15:53;15.23;;;7.18;;
25567;SDS011;13455;51.480;7.594;2023-04-24T12:18:22;13.30;;;6.63;;
25567;SDS011;13455;51.480;7.594;2023-04-24T12:20:48;17.70;;;6.97;;
25567;SDS011;13455;51.480;7.594;2023-04-24T12:23:14;13.25;;;6.60;;
25567;SDS011;13455;51.480;7.594;2023-04-24T12:25:40;12.98;;;5.55;;
25567;SDS011;13455;51.480;7.594;2023-04-24T12:30:48;13.10;;;4.97;;
25567;SDS011;13455;51.480;7.594;2023-04-24T12:33:21;12.75;;;4.68;;
25567;SDS011;13455;51.480;7.594;2023-04-24T12:35:56;11.38;;;4.50;;
25567;SDS011;13455;51.480;7.594;2023-04-24T12:38:23;11.60;;;4.50;;
25567;SDS011;13455;51.480;7.594;2023-04-24T12:41:12;13.93;;;4.60;;
25567;SDS011;13455;51.480;7.594;2023-04-24T12:43:38;13.85;;;4.82;;
25567;SDS011;13455;51.480;7.594;2023-04-24T12:46:15;11.93;;;4.80;;
25567;SDS011;13455;51.480;7.594;2023-04-24T12:48:41;12.77;;;4.57;;
25567;SDS011;13455;51.480;7.594;2023-04-24T12:51:06;11.30;;;4.30;;
25567;SDS011;13455;51.480;7.594;2023-04-24T12:53:32;11.63;;;4.30;;
25567;SDS011;13455;51.480;7.594;2023-04-24T12:55:57;13.93;;;4.32;;
25567;SDS011;13455;51.480;7.594;2023-04-24T12:58:23;10.10;;;4.10;;
25567;SDS011;13455;51.480;7.594;2023-04-24T13:00:49;11.90;;;4.05;;
25567;SDS011;13455;51.480;7.594;2023-04-24T13:03:15;13.07;;;4.07;;
25567;SDS011;13455;51.480;7.594;2023-04-24T13:05:41;10.13;;;4.00;;
25567;SDS011;13455;51.480;7.594;2023-04-24T13:08:07;11.47;;;4.03;;
25567;SDS011;13455;51.480;7.594;2023-04-24T13:10:33;10.27;;;4.00;;
25567;SDS011;13455;51.480;7.594;2023-04-24T13:12:59;11.63;;;4.10;;
25567;SDS011;13455;51.480;7.594;2023-04-24T13:15:25;9.40;;;4.00;;
25567;SDS011;13455;51.480;7.594;2023-04-24T13:17:51;8.63;;;3.90;;
25567;SDS011;13455;51.480;7.594;2023-04-24T13:20:16;11.33;;;4.17;;
25567;SDS011;13455;51.480;7.594;2023-04-24T13:22:42;11.85;;;4.03;;
25567;SDS011;13455;51.480;7.594;2023-04-24T13:25:08;12.07;;;4.37;;
25567;SDS011;13455;51.480;7.594;2023-04-24T13:27:34;9.23;;;3.90;;
25567;SDS011;13455;51.480;7.594;2023-04-24T13:29:59;10.40;;;4.00;;
25567;SDS011;13455;51.480;7.594;2023-04-24T13:32:25;8.98;;;3.78;;
25567;SDS011;13455;51.480;7.594;2023-04-24T13:34:51;8.30;;;3.75;;
25567;SDS011;13455;51.480;7.594;2023-04-24T13:37:17;7.72;;;3.22;;
25567;SDS011;13455;51.480;7.594;2023-04-24T13:39:42;7.90;;;3.40;;
25567;SDS011;13455;51.480;7.594;2023-04-24T13:42:08;7.43;;;3.22;;
25567;SDS011;13455;51.480;7.594;2023-04-24T13:44:34;8.15;;;3.30;;
25567;SDS011;13455;51.480;7.594;2023-04-24T13:47:00;6.57;;;3.20;;
25567;SDS011;13455;51.480;7.594;2023-04-24T13:49:26;7.85;;;2.95;;
25567;SDS011;13455;51.480;7.594;2023-04-24T13:51:52;9.63;;;3.70;;
25567;SDS011;13455;51.480;7.594;2023-04-24T13:54:19;6.53;;;3.10;;
25567;SDS011;13455;51.480;7.594;2023-04-24T13:56:45;7.90;;;2.92;;
25567;SDS011;13455;51.480;7.594;2023-04-24T13:59:12;6.07;;;2.53;;
25567;SDS011;13455;51.480;7.594;2023-04-24T14:01:37;5.65;;;2.50;;
25567;SDS011;13455;51.480;7.594;2023-04-24T14:04:03;5.53;;;2.53;;
25567;SDS011;13455;51.480;7.594;2023-04-24T14:06:29;4.50;;;2.40;;
25567;SDS011;13455;51.480;7.594;2023-04-24T14:08:56;5.72;;;2.10;;
25567;SDS011;13455;51.480;7.594;2023-04-24T14:11:21;4.53;;;2.10;;
25567;SDS011;13455;51.480;7.594;2023-04-24T14:13:47;3.77;;;1.73;;
25567;SDS011;13455;51.480;7.594;2023-04-24T14:16:13;5.70;;;2.10;;
25567;SDS011;13455;51.480;7.594;2023-04-24T14:18:39;5.65;;;1.90;;
25567;SDS011;13455;51.480;7.594;2023-04-24T14:21:05;4.43;;;1.80;;
25567;SDS011;13455;51.480;7.594;2023-04-24T14:23:31;7.07;;;1.88;;
25567;SDS011;13455;51.480;7.594;2023-04-24T14:25:57;6.38;;;1.98;;
25567;SDS011;13455;51.480;7.594;2023-04-24T14:28:23;6.55;;;1.90;;
25567;SDS011;13455;51.480;7.594;2023-04-24T14:30:49;5.60;;;1.70;;
25567;SDS011;13455;51.480;7.594;2023-04-24T14:33:15;5.70;;;1.67;;
25567;SDS011;13455;51.480;7.594;2023-04-24T14:35:41;4.97;;;1.60;;
25567;SDS011;13455;51.480;7.594;2023-04-24T14:38:09;6.18;;;1.88;;
25567;SDS011;13455;51.480;7.594;2023-04-24T14:40:36;6.23;;;1.70;;
25567;SDS011;13455;51.480;7.594;2023-04-24T14:43:02;4.95;;;1.83;;
25567;SDS011;13455;51.480;7.594;2023-04-24T14:45:28;6.00;;;1.63;;
25567;SDS011;13455;51.480;7.594;2023-04-24T14:47:53;4.33;;;1.47;;
25567;SDS011;13455;51.480;7.594;2023-04-24T14:50:20;4.55;;;1.20;;
25567;SDS011;13455;51.480;7.594;2023-04-24T14:52:46;3.72;;;1.40;;
25567;SDS011;13455;51.480;7.594;2023-04-24T14:55:12;5.28;;;1.42;;
25567;SDS011;13455;51.480;7.594;2023-04-24T14:57:38;6.32;;;1.30;;